sensor_id;sensor_type;location;lat;lon;timestamp;temperature;humidity
3592;DHT22;1810;48.720;9.094;2024-02-26T00:03:50;6.30;99.90
3592;DHT22;1810;48.720;9.094;2024-02-26T00:06:18;6.80;99.90
3592;DHT22;1810;48.720;9.094;2024-02-26T00:08:47;6.80;99.90
3592;DHT22;1810;48.720;9.094;2024-02-26T00:11:15;6.80;99.90
3592;DHT22;1810;48.720;9.094;2024-02-26T00:13:44;6.80;99.90
3592;DHT22;1810;48.720;9.094;2024-02-26T00:16:12;6.80;99.90
3592;DHT22;1810;48.720;9.094;2024-02-26T00:18:41;6.80;99.90
3592;DHT22;1810;48.720;9.094;2024-02-26T00:21:12;6.80;99.90
3592;DHT22;1810;48.720;9.094;2024-02-26T00:23:40;6.80;99.90
3592;DHT22;1810;48.720;9.094;2024-02-26T00:26:08;6.80;99.90
3592;DHT22;1810;48.720;9.094;2024-02-26T00:28:37;6.80;99.90
3592;DHT22;1810;48.720;9.094;2024-02-26T00:31:07;6.90;99.90
3592;DHT22;1810;48.720;9.094;2024-02-26T00:33:58;6.90;99.90
3592;DHT22;1810;48.720;9.094;2024-02-26T00:36:51;7.00;99.90
3592;DHT22;1810;48.720;9.094;2024-02-26T00:39:19;7.00;99.90
3592;DHT22;1810;48.720;9.094;2024-02-26T00:41:47;7.10;99.90
3592;DHT22;1810;48.720;9.094;2024-02-26T00:44:15;7.10;99.90
3592;DHT22;1810;48.720;9.094;2024-02-26T00:46:45;7.00;99.90
3592;DHT22;1810;48.720;9.094;2024-02-26T00:49:13;7.00;99.90
3592;DHT22;1810;48.720;9.094;2024-02-26T00:51:41;7.00;99.90
3592;DHT22;1810;48.720;9.094;2024-02-26T00:54:09;7.10;99.90
3592;DHT22;1810;48.720;9.094;2024-02-26T00:56:37;7.10;99.90
3592;DHT22;1810;48.720;9.094;2024-02-26T00:59:05;7.10;99.90
3592;DHT22;1810;48.720;9.094;2024-02-26T01:01:33;7.10;99.90
3592;DHT22;1810;48.720;9.094;2024-02-26T01:04:03;7.10;99.90
3592;DHT22;1810;48.720;9.094;2024-02-26T01:06:31;7.10;99.90
3592;DHT22;1810;48.720;9.094;2024-02-26T01:09:00;7.10;99.90
3592;DHT22;1810;48.720;9.094;2024-02-26T01:11:28;7.20;99.90
3592;DHT22;1810;48.720;9.094;2024-02-26T01:13:56;7.10;99.90
3592;DHT22;1810;48.720;9.094;2024-02-26T01:16:25;7.00;99.90
3592;DHT22;1810;48.720;9.094;2024-02-26T01:18:55;7.00;99.90
3592;DHT22;1810;48.720;9.094;2024-02-26T01:21:25;7.00;99.90
3592;DHT22;1810;48.720;9.094;2024-02-26T01:23:55;7.00;99.90
3592;DHT22;1810;48.720;9.094;2024-02-26T01:26:24;7.00;99.90
3592;DHT22;1810;48.720;9.094;2024-02-26T01:28:52;7.00;99.90
3592;DHT22;1810;48.720;9.094;2024-02-26T01:31:21;6.90;99.90
3592;DHT22;1810;48.720;9.094;2024-02-26T01:33:49;7.00;99.90
3592;DHT22;1810;48.720;9.094;2024-02-26T01:36:18;7.10;99.90
3592;DHT22;1810;48.720;9.094;2024-02-26T01:38:47;7.00;99.90
3592;DHT22;1810;48.720;9.094;2024-02-26T01:41:15;7.00;99.90
3592;DHT22;1810;48.720;9.094;2024-02-26T01:43:44;7.10;99.90
3592;DHT22;1810;48.720;9.094;2024-02-26T01:46:13;7.10;99.90
3592;DHT22;1810;48.720;9.094;2024-02-26T01:48:42;7.10;99.90
3592;DHT22;1810;48.720;9.094;2024-02-26T01:51:12;7.20;99.90
3592;DHT22;1810;48.720;9.094;2024-02-26T01:53:42;7.20;99.90
3592;DHT22;1810;48.720;9.094;2024-02-26T01:56:12;7.20;99.90
3592;DHT22;1810;48.720;9.094;2024-02-26T01:58:42;7.20;99.90
3592;DHT22;1810;48.720;9.094;2024-02-26T02:01:11;7.20;99.90
3592;DHT22;1810;48.720;9.094;2024-02-26T02:03:40;7.20;99.90
3592;DHT22;1810;48.720;9.094;2024-02-26T02:06:08;7.20;99.90
3592;DHT22;1810;48.720;9.094;2024-02-26T02:08:38;7.10;99.90
3592;DHT22;1810;48.720;9.094;2024-02-26T02:11:07;7.10;99.90
3592;DHT22;1810;48.720;9.094;2024-02-26T02:13:39;7.10;99.90
3592;DHT22;1810;48.720;9.094;2024-02-26T02:16:07;7.20;99.90
3592;DHT22;1810;48.720;9.094;2024-02-26T02:18:36;7.20;99.90
3592;DHT22;1810;48.720;9.094;2024-02-26T02:21:06;7.40;99.90
3592;DHT22;1810;48.720;9.094;2024-02-26T02:23:34;7.40;99.90
3592;DHT22;1810;48.720;9.094;2024-02-26T02:26:03;7.40;99.90
3592;DHT22;1810;48.720;9.094;2024-02-26T02:28:31;7.40;99.90
3592;DHT22;1810;48.720;9.094;2024-02-26T02:50:50;7.40;99.90
3592;DHT22;1810;48.720;9.094;2024-02-26T02:53:18;7.50;99.90
3592;DHT22;1810;48.720;9.094;2024-02-26T02:55:48;7.50;99.90
3592;DHT22;1810;48.720;9.094;2024-02-26T02:58:16;7.50;99.90
3592;DHT22;1810;48.720;9.094;2024-02-26T03:00:44;7.40;99.90
3592;DHT22;1810;48.720;9.094;2024-02-26T03:03:12;7.40;99.90
3592;DHT22;1810;48.720;9.094;2024-02-26T03:05:40;7.40;99.90
3592;DHT22;1810;48.720;9.094;2024-02-26T03:08:33;7.40;99.90
3592;DHT22;1810;48.720;9.094;2024-02-26T03:11:06;7.40;99.90
3592;DHT22;1810;48.720;9.094;2024-02-26T03:13:34;7.40;99.90
3592;DHT22;1810;48.720;9.094;2024-02-26T03:16:04;7.50;99.90
3592;DHT22;1810;48.720;9.094;2024-02-26T03:18:33;7.60;99.90
3592;DHT22;1810;48.720;9.094;2024-02-26T03:21:01;7.70;99.90
3592;DHT22;1810;48.720;9.094;2024-02-26T03:23:30;7.70;99.90
3592;DHT22;1810;48.720;9.094;2024-02-26T03:25:58;7.70;99.90
3592;DHT22;1810;48.720;9.094;2024-02-26T03:28:29;7.60;99.90
3592;DHT22;1810;48.720;9.094;2024-02-26T03:30:57;7.60;99.90
3592;DHT22;1810;48.720;9.094;2024-02-26T03:33:26;7.70;99.90
3592;DHT22;1810;48.720;9.094;2024-02-26T03:35:54;7.60;99.90
3592;DHT22;1810;48.720;9.094;2024-02-26T03:38:22;7.50;99.90
3592;DHT22;1810;48.720;9.094;2024-02-26T03:40:50;7.60;99.90
3592;DHT22;1810;48.720;9.094;2024-02-26T03:43:19;7.60;99.90
3592;DHT22;1810;48.720;9.094;2024-02-26T03:45:48;7.50;99.90
3592;DHT22;1810;48.720;9.094;2024-02-26T03:48:16;7.50;99.90
3592;DHT22;1810;48.720;9.094;2024-02-26T03:50:45;7.40;99.90
3592;DHT22;1810;48.720;9.094;2024-02-26T03:53:13;7.50;99.90
3592;DHT22;1810;48.720;9.094;2024-02-26T03:55:41;7.40;99.90
3592;DHT22;1810;48.720;9.094;2024-02-26T03:58:11;7.40;99.90
3592;DHT22;1810;48.720;9.094;2024-02-26T04:00:40;7.40;99.90
3592;DHT22;1810;48.720;9.094;2024-02-26T04:03:09;7.40;99.90
3592;DHT22;1810;48.720;9.094;2024-02-26T04:05:38;7.40;99.90
3592;DHT22;1810;48.720;9.094;2024-02-26T04:08:06;7.30;99.90
3592;DHT22;1810;48.720;9.094;2024-02-26T04:10:34;7.40;99.90
3592;DHT22;1810;48.720;9.094;2024-02-26T04:13:05;7.30;99.90
3592;DHT22;1810;48.720;9.094;2024-02-26T04:15:34;7.20;99.90
3592;DHT22;1810;48.720;9.094;2024-02-26T04:18:03;7.30;99.90
3592;DHT22;1810;48.720;9.094;2024-02-26T04:20:33;7.30;99.90
3592;DHT22;1810;48.720;9.094;2024-02-26T04:23:02;7.30;99.90
3592;DHT22;1810;48.720;9.094;2024-02-26T04:25:30;7.40;99.90
3592;DHT22;1810;48.720;9.094;2024-02-26T04:27:58;7.40;99.90
3592;DHT22;1810;48.720;9.094;2024-02-26T04:30:26;7.40;99.90
3592;DHT22;1810;48.720;9.094;2024-02-26T04:32:55;7.30;99.90
3592;DHT22;1810;48.720;9.094;2024-02-26T04:35:23;7.30;99.90
3592;DHT22;1810;48.720;9.094;2024-02-26T04:37:52;7.40;99.90
3592;DHT22;1810;48.720;9.094;2024-02-26T04:40:20;7.30;99.90
3592;DHT22;1810;48.720;9.094;2024-02-26T04:42:49;7.30;99.90
3592;DHT22;1810;48.720;9.094;2024-02-26T04:45:17;7.20;99.90
3592;DHT22;1810;48.720;9.094;2024-02-26T04:47:46;7.30;99.90
3592;DHT22;1810;48.720;9.094;2024-02-26T04:50:14;7.20;99.90
3592;DHT22;1810;48.720;9.094;2024-02-26T04:52:43;7.20;99.90
3592;DHT22;1810;48.720;9.094;2024-02-26T04:55:12;7.10;99.90
3592;DHT22;1810;48.720;9.094;2024-02-26T04:57:40;7.20;99.90
3592;DHT22;1810;48.720;9.094;2024-02-26T05:00:10;7.10;99.90
3592;DHT22;1810;48.720;9.094;2024-02-26T05:02:39;7.10;99.90
3592;DHT22;1810;48.720;9.094;2024-02-26T05:05:08;7.10;99.90
3592;DHT22;1810;48.720;9.094;2024-02-26T05:07:40;7.10;99.90
3592;DHT22;1810;48.720;9.094;2024-02-26T05:10:09;7.00;99.90
3592;DHT22;1810;48.720;9.094;2024-02-26T05:12:38;7.10;99.90
3592;DHT22;1810;48.720;9.094;2024-02-26T05:15:09;7.20;99.90
3592;DHT22;1810;48.720;9.094;2024-02-26T05:17:39;7.10;99.90
3592;DHT22;1810;48.720;9.094;2024-02-26T05:20:08;7.10;99.90
3592;DHT22;1810;48.720;9.094;2024-02-26T05:22:37;7.00;99.90
3592;DHT22;1810;48.720;9.094;2024-02-26T05:25:05;7.00;99.90
3592;DHT22;1810;48.720;9.094;2024-02-26T05:27:34;6.90;99.90
3592;DHT22;1810;48.720;9.094;2024-02-26T05:30:05;6.90;99.90
3592;DHT22;1810;48.720;9.094;2024-02-26T05:32:34;7.00;99.90
3592;DHT22;1810;48.720;9.094;2024-02-26T05:35:02;7.00;99.90
3592;DHT22;1810;48.720;9.094;2024-02-26T05:37:31;6.90;99.90
3592;DHT22;1810;48.720;9.094;2024-02-26T05:39:59;6.90;99.90
3592;DHT22;1810;48.720;9.094;2024-02-26T05:42:29;6.90;99.90
3592;DHT22;1810;48.720;9.094;2024-02-26T05:44:57;6.80;99.90
3592;DHT22;1810;48.720;9.094;2024-02-26T05:47:27;6.80;99.90
3592;DHT22;1810;48.720;9.094;2024-02-26T05:49:56;6.90;99.90
3592;DHT22;1810;48.720;9.094;2024-02-26T05:52:26;6.90;99.90
3592;DHT22;1810;48.720;9.094;2024-02-26T05:54:54;7.00;99.90
3592;DHT22;1810;48.720;9.094;2024-02-26T05:57:22;6.90;99.90
3592;DHT22;1810;48.720;9.094;2024-02-26T05:59:51;6.80;99.90
3592;DHT22;1810;48.720;9.094;2024-02-26T06:02:19;6.80;99.90
3592;DHT22;1810;48.720;9.094;2024-02-26T06:04:48;6.80;99.90
3592;DHT22;1810;48.720;9.094;2024-02-26T06:07:16;6.70;99.90
3592;DHT22;1810;48.720;9.094;2024-02-26T06:09:44;6.40;99.90
3592;DHT22;1810;48.720;9.094;2024-02-26T06:12:12;6.30;99.90
3592;DHT22;1810;48.720;9.094;2024-02-26T06:14:41;6.30;99.90
3592;DHT22;1810;48.720;9.094;2024-02-26T06:17:34;6.20;99.90
3592;DHT22;1810;48.720;9.094;2024-02-26T06:20:04;6.20;99.90
3592;DHT22;1810;48.720;9.094;2024-02-26T06:22:33;6.30;99.90
3592;DHT22;1810;48.720;9.094;2024-02-26T06:25:01;6.40;99.90
3592;DHT22;1810;48.720;9.094;2024-02-26T06:27:30;6.50;99.90
3592;DHT22;1810;48.720;9.094;2024-02-26T06:29:58;6.40;99.90
3592;DHT22;1810;48.720;9.094;2024-02-26T06:32:26;6.50;99.90
3592;DHT22;1810;48.720;9.094;2024-02-26T06:34:56;6.50;99.90
3592;DHT22;1810;48.720;9.094;2024-02-26T06:37:25;6.50;99.90
3592;DHT22;1810;48.720;9.094;2024-02-26T06:39:53;6.50;99.90
3592;DHT22;1810;48.720;9.094;2024-02-26T06:42:22;6.60;99.90
3592;DHT22;1810;48.720;9.094;2024-02-26T06:44:50;6.60;99.90
3592;DHT22;1810;48.720;9.094;2024-02-26T06:47:18;6.70;99.90
3592;DHT22;1810;48.720;9.094;2024-02-26T06:49:46;6.70;99.90
3592;DHT22;1810;48.720;9.094;2024-02-26T06:52:15;6.70;99.90
3592;DHT22;1810;48.720;9.094;2024-02-26T06:57:14;6.80;99.90
